Time;durP1;ratioP1;P1;durP2;ratioP2;P2;SDS_P1;SDS_P2;PMS_P1;PMS_P2;Temp;Humidity;BMP_temperature;BMP_pressure;BME280_temperature;BME280_humidity;BME280_pressure;Samples;Min_cycle;Max_cycle;Signal;HPM_P1;HPM_P2
2022/06/22 00:00:34;;;;;;;9.40;6.55;;;21.50;99.90;;;;;;4968916;28;20030;-72
2022/06/22 00:03:00;;;;;;;11.88;6.65;;;21.40;99.90;;;;;;4967218;28;20034;-73
2022/06/22 00:05:38;;;;;;;11.55;6.82;;;21.40;99.90;;;;;;4971356;28;20085;-73
2022/06/22 00:08:07;;;;;;;10.77;6.72;;;21.40;99.90;;;;;;4972009;28;20101;-73
2022/06/22 00:10:37;;;;;;;12.75;7.05;;;21.40;99.90;;;;;;4969588;28;20883;-74
2022/06/22 00:13:13;;;;;;;9.75;6.53;;;21.40;99.90;;;;;;4967084;28;20027;-72
2022/06/22 00:15:51;;;;;;;13.85;7.07;;;21.40;99.90;;;;;;4969656;28;20054;-72
2022/06/22 00:18:39;;;;;;;9.18;6.90;;;21.40;99.90;;;;;;4970555;28;20081;-73
2022/06/22 00:21:33;;;;;;;11.55;6.13;;;21.40;99.90;;;;;;4967834;28;20557;-72
2022/06/22 00:24:00;;;;;;;;;;;21.40;99.90;;;;;;4969758;28;20034;-73
2022/06/22 00:26:36;;;;;;;10.85;6.72;;;21.40;99.90;;;;;;4969514;28;19918;-73
2022/06/22 00:29:17;;;;;;;11.63;7.20;;;21.40;99.90;;;;;;4973009;28;20027;-73
2022/06/22 00:31:49;;;;;;;11.73;7.45;;;21.40;99.90;;;;;;4984127;28;20031;-72
2022/06/22 00:34:22;;;;;;;14.05;7.30;;;21.40;99.90;;;;;;4969218;28;20062;-73
2022/06/22 00:37:26;;;;;;;11.98;7.32;;;21.40;99.90;;;;;;4968999;28;20061;-73
2022/06/22 00:39:56;;;;;;;11.15;6.82;;;21.40;99.90;;;;;;4965444;28;20054;-73
2022/06/22 00:42:24;;;;;;;11.13;6.85;;;21.40;99.90;;;;;;4970510;28;20065;-72
2022/06/22 00:44:57;;;;;;;12.90;7.07;;;21.40;99.90;;;;;;4968134;28;20113;-73
2022/06/22 00:47:37;;;;;;;10.75;6.88;;;21.40;99.90;;;;;;4969302;28;20542;-72
2022/06/22 00:50:14;;;;;;;9.38;6.38;;;21.40;99.90;;;;;;4971940;28;20046;-72
2022/06/22 00:53:09;;;;;;;7.97;7.00;;;21.40;99.90;;;;;;4968298;28;20030;-72
2022/06/22 00:55:37;;;;;;;7.45;6.65;;;21.40;99.90;;;;;;4959365;28;20130;-73
2022/06/22 00:58:08;;;;;;;10.07;6.50;;;21.40;99.90;;;;;;4970637;28;20105;-73
2022/06/22 01:00:55;;;;;;;8.10;6.53;;;21.40;99.90;;;;;;4965116;28;20066;-73
2022/06/22 01:03:33;;;;;;;10.98;6.82;;;21.40;99.90;;;;;;4970016;28;20085;-72
2022/06/22 01:06:12;;;;;;;9.55;6.47;;;21.50;99.90;;;;;;4967418;28;20418;-73
2022/06/22 01:08:54;;;;;;;10.45;6.75;;;21.50;99.90;;;;;;4969201;28;20431;-73
2022/06/22 01:15:00;;;;;;;12.90;7.40;;;21.50;99.90;;;;;;4969920;28;20109;-73
2022/06/22 01:17:29;;;;;;;11.85;6.93;;;21.50;99.90;;;;;;4969825;28;20352;-73
2022/06/22 01:20:14;;;;;;;11.25;6.88;;;21.50;99.90;;;;;;4967069;28;20045;-72
2022/06/22 01:23:07;;;;;;;15.75;7.10;;;21.50;99.90;;;;;;4968813;28;20037;-73
2022/06/22 01:26:02;;;;;;;10.57;7.87;;;21.50;99.90;;;;;;4967828;28;20022;-73
2022/06/22 01:28:27;;;;;;;8.07;6.28;;;21.50;99.90;;;;;;4969261;28;20273;-72
2022/06/22 01:30:56;;;;;;;9.52;6.55;;;21.50;99.90;;;;;;4969096;28;20082;-73
2022/06/22 01:33:33;;;;;;;10.18;7.30;;;21.50;99.90;;;;;;4962432;28;20447;-72
2022/06/22 01:36:05;;;;;;;10.88;6.63;;;21.50;99.90;;;;;;4969300;28;20062;-73
2022/06/22 01:38:33;;;;;;;12.32;6.80;;;21.50;99.90;;;;;;4966783;28;20065;-72
2022/06/22 01:41:22;;;;;;;13.13;7.10;;;21.50;99.90;;;;;;4966925;28;20031;-72
2022/06/22 01:43:57;;;;;;;13.07;7.28;;;21.50;99.90;;;;;;4970740;28;20054;-72
2022/06/22 01:47:11;;;;;;;11.50;7.47;;;21.50;99.90;;;;;;4968245;28;20042;-72
2022/06/22 01:49:55;;;;;;;10.05;7.60;;;21.50;99.90;;;;;;4963117;28;20034;-73
2022/06/22 01:52:54;;;;;;;12.02;7.68;;;21.50;99.90;;;;;;4967838;28;20035;-71
2022/06/22 01:55:54;;;;;;;13.98;8.13;;;21.50;99.90;;;;;;4968409;28;20038;-73
2022/06/22 01:58:20;;;;;;;9.50;7.05;;;21.40;99.90;;;;;;4934937;28;20035;-73
2022/06/22 02:00:54;;;;;;;12.02;7.70;;;21.40;99.90;;;;;;4970371;28;20041;-72
2022/06/22 02:03:26;;;;;;;9.35;7.45;;;21.40;99.90;;;;;;4968854;28;20039;-73
2022/06/22 02:09:14;;;;;;;11.23;7.47;;;21.30;99.90;;;;;;4968294;28;20713;-72
2022/06/22 02:11:47;;;;;;;12.60;8.02;;;21.30;99.90;;;;;;4966436;28;20035;-73
2022/06/22 02:14:21;;;;;;;12.27;7.83;;;21.30;99.90;;;;;;4972211;28;20492;-73
2022/06/22 02:16:55;;;;;;;11.00;7.57;;;21.30;99.90;;;;;;4969681;28;20283;-73
2022/06/22 02:19:22;;;;;;;12.00;7.68;;;21.30;99.90;;;;;;4968537;28;20105;-72
2022/06/22 02:21:50;;;;;;;9.90;7.68;;;21.30;99.90;;;;;;4965571;28;20042;-72
2022/06/22 02:24:36;;;;;;;14.48;8.88;;;21.20;99.90;;;;;;4967122;28;20046;-73
2022/06/22 02:27:10;;;;;;;10.35;7.85;;;21.20;99.90;;;;;;4968875;28;20145;-73
2022/06/22 02:29:43;;;;;;;11.23;7.88;;;21.10;99.90;;;;;;4971585;28;20042;-73
2022/06/22 02:32:16;;;;;;;;;;;21.10;99.90;;;;;;4970502;28;20027;-71
2022/06/22 02:34:46;;;;;;;10.75;7.78;;;21.00;99.90;;;;;;4963592;28;19918;-72
2022/06/22 02:37:12;;;;;;;12.00;8.02;;;21.00;99.90;;;;;;4965603;28;20034;-73
2022/06/22 02:39:46;;;;;;;9.25;7.93;;;21.00;99.90;;;;;;4965268;28;20030;-73
2022/06/22 02:44:57;;;;;;;13.00;7.97;;;20.90;99.90;;;;;;4967303;28;19960;-73
2022/06/22 02:47:31;;;;;;;12.75;8.23;;;20.90;99.90;;;;;;4967884;28;20027;-72
2022/06/22 02:50:02;;;;;;;;;;;20.90;99.90;;;;;;4967116;28;20046;-73
2022/06/22 02:52:40;;;;;;;9.60;8.15;;;20.90;99.90;;;;;;4968832;28;19910;-73
2022/06/22 02:55:09;;;;;;;13.32;8.23;;;20.90;99.90;;;;;;4970134;28;20030;-73
2022/06/22 02:57:47;;;;;;;10.75;8.43;;;20.90;99.90;;;;;;4966781;28;20035;-72
2022/06/22 03:00:15;;;;;;;9.73;7.78;;;20.90;99.90;;;;;;4965494;28;20023;-72
2022/06/22 03:02:42;;;;;;;13.32;7.82;;;20.80;99.90;;;;;;4968485;28;20086;-73
2022/06/22 03:05:09;;;;;;;11.35;7.75;;;20.80;99.90;;;;;;4970060;28;20131;-73
2022/06/22 03:07:42;;;;;;;13.38;8.50;;;20.80;99.90;;;;;;4968061;28;20166;-73
2022/06/22 03:10:36;;;;;;;11.95;8.18;;;20.80;99.90;;;;;;4968656;28;20058;-72
2022/06/22 03:13:02;;;;;;;12.57;7.90;;;20.80;99.90;;;;;;4970232;28;20051;-73
2022/06/22 03:15:32;;;;;;;10.52;8.10;;;20.70;99.90;;;;;;4972352;28;20027;-73
2022/06/22 03:17:59;;;;;;;11.10;8.70;;;20.70;99.90;;;;;;4965962;28;20800;-73
2022/06/22 03:20:31;;;;;;;9.98;7.88;;;20.70;99.90;;;;;;4973568;28;20069;-73
2022/06/22 03:23:12;;;;;;;10.63;8.50;;;20.60;99.90;;;;;;4970668;28;20550;-72
2022/06/22 03:25:56;;;;;;;11.75;8.07;;;20.60;99.90;;;;;;4973476;28;20019;-73
2022/06/22 03:28:34;;;;;;;11.27;7.43;;;20.60;99.90;;;;;;4972223;28;20023;-74
2022/06/22 03:31:08;;;;;;;11.30;8.15;;;20.60;99.90;;;;;;4970188;28;20042;-73
2022/06/22 03:33:40;;;;;;;11.02;7.45;;;20.70;99.90;;;;;;4972533;28;20030;-73
2022/06/22 03:36:12;;;;;;;11.10;7.50;;;20.70;99.90;;;;;;4968913;28;20042;-73
2022/06/22 03:38:47;;;;;;;11.20;7.88;;;20.70;99.90;;;;;;4970639;28;20496;-74
2022/06/22 03:41:20;;;;;;;10.60;7.90;;;20.70;99.90;;;;;;4971462;28;20034;-73
2022/06/22 03:44:15;;;;;;;9.55;7.85;;;20.80;99.90;;;;;;4971735;28;20039;-73
2022/06/22 03:46:59;;;;;;;10.50;7.78;;;20.70;99.90;;;;;;4961561;28;20400;-74
2022/06/22 03:49:24;;;;;;;;;;;20.70;99.90;;;;;;4969551;28;20023;-73
2022/06/22 03:52:22;;;;;;;12.75;8.00;;;20.80;99.90;;;;;;4970588;28;19921;-73
2022/06/22 03:55:02;;;;;;;10.45;8.02;;;20.80;99.90;;;;;;4952018;28;20115;-72
2022/06/22 03:57:34;;;;;;;8.68;7.47;;;20.80;99.90;;;;;;4973274;28;20031;-72
2022/06/22 04:00:00;;;;;;;12.23;8.27;;;20.80;99.90;;;;;;4967541;28;20023;-72
2022/06/22 04:02:27;;;;;;;10.45;8.35;;;20.80;99.90;;;;;;4970975;28;20037;-72
2022/06/22 04:04:54;;;;;;;11.77;8.50;;;20.80;99.90;;;;;;4973529;28;20027;-72
2022/06/22 04:07:21;;;;;;;11.45;8.30;;;20.80;99.90;;;;;;4972676;28;20027;-73
2022/06/22 04:09:54;;;;;;;11.25;7.82;;;20.80;99.90;;;;;;4971784;28;20023;-72
2022/06/22 04:12:25;;;;;;;12.73;8.10;;;20.80;99.90;;;;;;4970083;28;20054;-73
2022/06/22 04:15:24;;;;;;;11.48;8.55;;;20.90;99.90;;;;;;4967615;28;20041;-72
2022/06/22 04:18:05;;;;;;;11.93;7.53;;;20.90;99.90;;;;;;4967846;28;20027;-72
2022/06/22 04:21:07;;;;;;;12.40;8.23;;;20.90;99.90;;;;;;4962621;28;20034;-71
2022/06/22 04:23:43;;;;;;;12.10;8.27;;;21.00;99.90;;;;;;4928696;28;20039;-71
2022/06/22 04:26:31;;;;;;;11.98;8.85;;;21.10;99.90;;;;;;4981093;28;20045;-72
2022/06/22 04:29:20;;;;;;;16.52;9.25;;;21.20;99.90;;;;;;5023724;23;20030;-67
2022/06/22 04:31:59;;;;;;;12.20;9.13;;;21.30;99.90;;;;;;4997722;28;20039;-67
2022/06/22 04:34:47;;;;;;;13.20;9.02;;;21.30;99.90;;;;;;4999252;28;20686;-68
2022/06/22 04:37:35;;;;;;;12.27;8.48;;;21.40;99.90;;;;;;4991869;28;20026;-67
2022/06/22 04:40:10;;;;;;;12.35;8.25;;;21.40;99.90;;;;;;4977475;28;20035;-67
2022/06/22 04:42:36;;;;;;;10.07;7.70;;;21.40;99.90;;;;;;4978124;28;20026;-67
2022/06/22 04:45:03;;;;;;;13.70;8.90;;;21.40;99.90;;;;;;4979332;28;20052;-67
2022/06/22 04:47:33;;;;;;;10.95;7.82;;;21.40;99.90;;;;;;4968838;28;20053;-75
2022/06/22 04:50:06;;;;;;;11.02;8.63;;;21.30;99.90;;;;;;4976196;28;20066;-76
2022/06/22 04:52:42;;;;;;;;;;;21.30;99.90;;;;;;4974910;28;20409;-76
2022/06/22 04:55:17;;;;;;;10.07;8.25;;;21.30;99.90;;;;;;4969705;28;19953;-76
2022/06/22 04:57:47;;;;;;;14.27;8.10;;;21.30;99.90;;;;;;4973495;28;20449;-75
2022/06/22 05:00:26;;;;;;;12.63;7.53;;;21.30;99.90;;;;;;4970000;28;20031;-76
2022/06/22 05:03:00;;;;;;;12.35;7.82;;;21.30;99.90;;;;;;4978836;28;20503;-76
2022/06/22 05:05:32;;;;;;;10.70;8.07;;;21.30;99.90;;;;;;4978046;28;20464;-75
2022/06/22 05:08:06;;;;;;;12.25;8.00;;;21.40;99.90;;;;;;4974954;28;20081;-76
2022/06/22 05:10:42;;;;;;;12.35;7.90;;;21.40;99.90;;;;;;4975095;28;20038;-74
2022/06/22 05:13:42;;;;;;;12.65;8.15;;;21.50;99.90;;;;;;4975101;28;20018;-75
2022/06/22 05:16:13;;;;;;;9.98;7.93;;;21.60;99.90;;;;;;4960559;28;20043;-76
2022/06/22 05:18:41;;;;;;;9.60;8.40;;;21.60;99.90;;;;;;4977104;28;20527;-76
2022/06/22 05:21:14;;;;;;;11.18;8.07;;;21.70;99.90;;;;;;4974281;28;20027;-76
2022/06/22 05:23:45;;;;;;;11.77;7.72;;;21.80;99.90;;;;;;4973637;28;20027;-76
2022/06/22 05:26:11;;;;;;;10.00;7.82;;;21.90;99.90;;;;;;4976274;28;20035;-75
2022/06/22 05:28:44;;;;;;;11.07;7.97;;;22.00;99.90;;;;;;4972805;28;20476;-75
2022/06/22 05:31:44;;;;;;;10.10;7.73;;;22.20;99.90;;;;;;4983275;28;20035;-75
2022/06/22 05:34:16;;;;;;;9.00;6.93;;;22.30;99.90;;;;;;4976777;28;20038;-75
2022/06/22 05:36:48;;;;;;;10.32;7.28;;;22.30;99.90;;;;;;4977966;28;20475;-75
2022/06/22 05:39:14;;;;;;;9.80;7.72;;;22.30;99.90;;;;;;4976720;28;20384;-75
2022/06/22 05:41:45;;;;;;;11.20;8.35;;;22.30;99.90;;;;;;4972808;28;20045;-75
2022/06/22 05:44:13;;;;;;;12.30;9.50;;;22.20;99.90;;;;;;4973649;28;20391;-75
2022/06/22 05:46:57;;;;;;;14.65;10.00;;;22.20;99.90;;;;;;4973597;28;20036;-75
2022/06/22 05:49:29;;;;;;;11.32;8.32;;;22.10;99.90;;;;;;4962056;28;20027;-75
2022/06/22 05:52:17;;;;;;;10.95;9.32;;;22.00;99.90;;;;;;4967706;28;20038;-74
2022/06/22 05:54:50;;;;;;;13.65;10.45;;;21.90;99.90;;;;;;5003392;28;20037;-75
2022/06/22 05:57:19;;;;;;;;;;;21.90;99.90;;;;;;4977416;28;20026;-75
2022/06/22 06:00:04;;;;;;;17.35;10.43;;;21.80;99.90;;;;;;4973929;28;19906;-76
2022/06/22 06:02:44;;;;;;;16.00;9.00;;;21.60;99.90;;;;;;4973858;28;20054;-75
2022/06/22 06:05:21;;;;;;;17.38;10.27;;;21.60;99.90;;;;;;4986719;28;20035;-76
2022/06/22 06:07:49;;;;;;;12.88;10.05;;;21.50;99.90;;;;;;4973973;28;20023;-76
2022/06/22 06:10:37;;;;;;;12.18;10.88;;;21.50;99.90;;;;;;4976961;28;20022;-76
2022/06/22 06:13:21;;;;;;;17.33;11.18;;;21.40;99.90;;;;;;4977034;28;20039;-75
2022/06/22 06:15:52;;;;;;;17.17;11.13;;;21.40;99.90;;;;;;4964418;28;20030;-75
2022/06/22 06:18:24;;;;;;;14.63;11.15;;;21.40;99.90;;;;;;4972989;28;20066;-75
2022/06/22 06:21:02;;;;;;;18.90;9.15;;;21.30;99.90;;;;;;4972819;28;20399;-75
2022/06/22 06:23:45;;;;;;;12.90;9.73;;;21.20;99.90;;;;;;4972884;28;20030;-75
2022/06/22 06:29:34;;;;;;;12.15;8.27;;;21.10;99.90;;;;;;4972819;28;20126;-74
2022/06/22 06:32:00;;;;;;;16.05;8.43;;;21.00;99.90;;;;;;4972188;28;20022;-75
2022/06/22 06:34:38;;;;;;;11.82;8.07;;;20.90;99.90;;;;;;4983152;28;20566;-75
2022/06/22 06:37:35;;;;;;;14.73;8.45;;;20.90;99.90;;;;;;4971409;28;20479;-75
2022/06/22 06:40:01;;;;;;;10.68;7.93;;;21.00;99.90;;;;;;4971008;28;20044;-75
2022/06/22 06:42:41;;;;;;;15.13;9.90;;;21.00;99.90;;;;;;4970053;28;20045;-76
2022/06/22 06:45:15;;;;;;;14.77;8.52;;;21.00;99.90;;;;;;4965647;28;20038;-74
2022/06/22 06:47:46;;;;;;;14.38;9.10;;;21.00;99.90;;;;;;4972723;28;20090;-75
2022/06/22 06:50:47;;;;;;;15.57;8.13;;;21.00;99.90;;;;;;4980852;28;20039;-74
2022/06/22 06:53:39;;;;;;;13.90;9.35;;;21.10;99.90;;;;;;4955297;28;20051;-76
2022/06/22 06:56:29;;;;;;;14.23;9.88;;;21.10;99.90;;;;;;4973170;28;20438;-76
2022/06/22 06:59:00;;;;;;;13.05;8.95;;;21.20;99.90;;;;;;4974651;28;20081;-75
2022/06/22 07:01:32;;;;;;;20.58;8.85;;;21.20;99.90;;;;;;4972091;28;20030;-76
2022/06/22 07:04:12;;;;;;;10.35;7.25;;;21.20;99.90;;;;;;4981793;28;20035;-76
2022/06/22 07:06:39;;;;;;;13.82;9.93;;;21.30;99.90;;;;;;4975351;28;20024;-76
2022/06/22 07:09:31;;;;;;;13.15;9.10;;;21.30;99.90;;;;;;4968939;28;20118;-76
2022/06/22 07:12:04;;;;;;;12.07;8.68;;;21.40;99.90;;;;;;4926994;28;20038;-68
2022/06/22 07:14:36;;;;;;;13.68;9.63;;;21.40;99.90;;;;;;4964647;28;20504;-67
2022/06/22 07:17:13;;;;;;;12.82;9.20;;;21.50;99.90;;;;;;4961105;28;20066;-66
2022/06/22 07:19:50;;;;;;;15.48;8.80;;;21.60;99.90;;;;;;4963567;28;20125;-67
2022/06/22 07:22:25;;;;;;;15.15;9.15;;;21.80;99.90;;;;;;4962397;28;20020;-66
2022/06/22 07:25:09;;;;;;;11.80;8.80;;;21.90;99.90;;;;;;4958274;28;20403;-67
2022/06/22 07:27:43;;;;;;;14.98;8.57;;;22.10;99.90;;;;;;4960065;28;20037;-67
2022/06/22 07:30:32;;;;;;;15.00;8.95;;;22.20;99.90;;;;;;4964882;28;20042;-67
2022/06/22 07:33:19;;;;;;;11.20;8.68;;;22.30;99.90;;;;;;4963185;28;20031;-67
2022/06/22 07:36:24;;;;;;;13.82;9.60;;;22.40;99.90;;;;;;4963657;28;20452;-67
2022/06/22 07:38:54;;;;;;;10.73;8.27;;;22.60;99.90;;;;;;4959484;28;20023;-66
2022/06/22 07:41:25;;;;;;;10.85;8.07;;;22.70;99.90;;;;;;4962953;28;20031;-66
2022/06/22 07:43:55;;;;;;;11.20;8.15;;;22.80;99.90;;;;;;4958704;28;21343;-76
2022/06/22 07:46:33;;;;;;;9.90;7.97;;;22.90;99.90;;;;;;4956367;28;20030;-74
2022/06/22 07:49:12;;;;;;;14.38;8.63;;;23.00;99.90;;;;;;4965723;28;20023;-75
2022/06/22 07:51:45;;;;;;;13.27;8.68;;;23.20;99.90;;;;;;4964479;28;20514;-75
2022/06/22 07:54:37;;;;;;;10.93;7.93;;;23.30;99.90;;;;;;4966851;28;20027;-75
2022/06/22 07:57:47;;;;;;;12.80;7.90;;;23.40;99.90;;;;;;4966729;28;20042;-74
2022/06/22 08:00:20;;;;;;;14.07;8.50;;;23.50;99.90;;;;;;4964630;28;20614;-75
2022/06/22 08:02:48;;;;;;;13.98;8.48;;;23.40;99.90;;;;;;4977215;28;21145;-75
2022/06/22 08:05:23;;;;;;;11.10;8.00;;;23.30;99.90;;;;;;4969533;28;20097;-75
2022/06/22 08:08:06;;;;;;;12.00;8.45;;;23.10;99.90;;;;;;4968065;28;20023;-75
2022/06/22 08:11:07;;;;;;;12.98;8.77;;;23.10;99.90;;;;;;4960158;28;20520;-75
2022/06/22 08:13:40;;;;;;;14.20;8.48;;;23.10;99.90;;;;;;4970663;28;20030;-75
2022/06/22 08:16:16;;;;;;;12.43;8.77;;;23.00;99.90;;;;;;4964779;28;20039;-75
2022/06/22 08:18:43;;;;;;;12.52;8.88;;;23.00;99.90;;;;;;4975580;28;20170;-74
2022/06/22 08:21:13;;;;;;;13.13;9.20;;;22.90;99.90;;;;;;4969809;28;20038;-75
2022/06/22 08:23:39;;;;;;;14.15;8.70;;;22.90;99.90;;;;;;4984211;28;20098;-74
2022/06/22 08:26:10;;;;;;;13.88;9.02;;;22.90;99.90;;;;;;4973167;28;20061;-76
2022/06/22 08:28:38;;;;;;;11.07;8.18;;;22.80;99.90;;;;;;4966184;28;20031;-75
2022/06/22 08:31:04;;;;;;;14.10;9.50;;;22.80;99.90;;;;;;4967760;28;20042;-76
2022/06/22 08:34:11;;;;;;;14.30;9.90;;;22.70;99.90;;;;;;4971063;28;20058;-76
2022/06/22 08:36:49;;;;;;;14.90;9.98;;;22.60;99.90;;;;;;4908212;29;20038;-77
2022/06/22 08:39:31;;;;;;;12.50;8.43;;;22.50;99.90;;;;;;4922924;29;20091;-76
2022/06/22 08:42:02;;;;;;;13.18;8.65;;;22.50;99.90;;;;;;4953925;28;20039;-75
2022/06/22 08:44:55;;;;;;;11.73;9.57;;;22.40;99.90;;;;;;4989359;28;20038;-67
2022/06/22 08:47:42;;;;;;;12.77;9.20;;;22.40;99.90;;;;;;4971428;28;20381;-68
2022/06/22 08:50:15;;;;;;;14.90;9.75;;;22.40;99.90;;;;;;4969780;28;20031;-72
2022/06/22 08:52:59;;;;;;;14.23;8.18;;;22.50;99.90;;;;;;4971042;28;20019;-75
2022/06/22 08:55:43;;;;;;;15.52;9.40;;;22.50;99.90;;;;;;4977713;28;20419;-77
2022/06/22 08:58:59;;;;;;;10.93;8.52;;;22.60;99.90;;;;;;4972268;28;20029;-72
2022/06/22 09:01:49;;;;;;;11.88;9.13;;;22.60;99.90;;;;;;4972978;28;20027;-68
2022/06/22 09:04:51;;;;;;;13.70;9.05;;;22.60;99.90;;;;;;4967874;28;20050;-75
2022/06/22 09:07:37;;;;;;;11.63;7.80;;;22.70;99.90;;;;;;4977277;28;20086;-75
2022/06/22 09:10:32;;;;;;;14.27;8.85;;;22.90;99.90;;;;;;4968043;28;20031;-76
2022/06/22 09:13:11;;;;;;;13.63;8.65;;;22.90;99.90;;;;;;4964975;28;20487;-73
2022/06/22 09:15:58;;;;;;;12.23;7.80;;;23.10;99.90;;;;;;4965234;28;20019;-75
2022/06/22 09:18:39;;;;;;;9.65;7.82;;;23.10;99.90;;;;;;4968712;28;20019;-74
2022/06/22 09:21:24;;;;;;;15.00;7.97;;;23.20;99.90;;;;;;4967180;28;20027;-75
2022/06/22 09:24:05;;;;;;;10.00;7.03;;;23.30;99.90;;;;;;4965639;28;20122;-73
2022/06/22 09:26:49;;;;;;;10.52;7.97;;;23.40;99.90;;;;;;4967210;28;20031;-74
2022/06/22 09:29:34;;;;;;;;;;;23.50;99.90;;;;;;4965555;28;20034;-74
2022/06/22 09:32:22;;;;;;;10.80;7.43;;;23.60;99.90;;;;;;4963752;28;19925;-74
2022/06/22 09:35:09;;;;;;;10.27;7.75;;;23.70;99.90;;;;;;4964781;28;20042;-74
2022/06/22 09:37:52;;;;;;;13.10;8.10;;;23.80;99.90;;;;;;4989227;28;20029;-72
2022/06/22 09:40:29;;;;;;;9.40;7.85;;;23.90;99.90;;;;;;4917087;28;20046;-73
2022/06/22 09:43:07;;;;;;;13.80;8.00;;;24.10;99.90;;;;;;4978255;28;20381;-73
2022/06/22 09:45:52;;;;;;;14.07;8.35;;;24.20;99.90;;;;;;4969062;28;20105;-73
2022/06/22 09:48:35;;;;;;;10.02;7.13;;;24.30;99.90;;;;;;4970091;28;20026;-74
2022/06/22 09:51:13;;;;;;;12.13;7.60;;;24.40;99.90;;;;;;4965680;28;20054;-73
2022/06/22 09:53:58;;;;;;;12.75;7.65;;;24.50;99.90;;;;;;4970893;28;20030;-73
2022/06/22 09:56:55;;;;;;;11.60;7.47;;;24.60;99.90;;;;;;4972292;28;20488;-73
2022/06/22 09:59:20;;;;;;;9.27;7.43;;;24.50;99.90;;;;;;4961715;28;20030;-74
2022/06/22 10:01:56;;;;;;;11.43;7.28;;;24.50;99.90;;;;;;4961495;28;20041;-74
2022/06/22 10:04:55;;;;;;;11.98;7.68;;;24.50;99.90;;;;;;4985489;28;20530;-73
2022/06/22 10:07:30;;;;;;;11.10;7.10;;;24.50;99.90;;;;;;4968491;28;20513;-74
2022/06/22 10:10:14;;;;;;;14.07;7.75;;;24.40;99.90;;;;;;4968417;28;20069;-73
2022/06/22 10:13:05;;;;;;;11.15;6.88;;;24.40;99.90;;;;;;4962919;28;20023;-74
2022/06/22 10:15:48;;;;;;;10.25;7.38;;;24.40;99.90;;;;;;4966229;28;20054;-73
2022/06/22 10:18:33;;;;;;;12.68;7.10;;;24.30;99.90;;;;;;4966384;28;20955;-74
2022/06/22 10:21:01;;;;;;;11.80;7.53;;;24.30;99.90;;;;;;4979436;28;20049;-75
2022/06/22 10:23:47;;;;;;;15.15;7.30;;;24.20;99.90;;;;;;4970497;28;20027;-76
2022/06/22 10:26:32;;;;;;;14.90;7.13;;;24.20;99.90;;;;;;4969737;28;20475;-75
2022/06/22 10:29:25;;;;;;;11.82;6.30;;;24.20;99.90;;;;;;4967882;28;20033;-73
2022/06/22 10:31:59;;;;;;;11.02;7.28;;;24.20;99.90;;;;;;5004093;23;20072;-71
2022/06/22 10:34:40;;;;;;;9.88;6.70;;;24.10;99.90;;;;;;4984281;28;20113;-70
2022/06/22 10:37:08;;;;;;;13.10;6.90;;;24.10;99.90;;;;;;4980138;28;20053;-70
2022/06/22 10:39:56;;;;;;;8.43;6.18;;;24.10;99.90;;;;;;4978708;28;20026;-72
2022/06/22 10:45:46;;;;;;;14.13;7.28;;;24.00;99.90;;;;;;4957024;28;20058;-72
2022/06/22 10:48:49;;;;;;;15.65;8.45;;;23.90;99.90;;;;;;4960191;28;20736;-71
2022/06/22 10:51:41;;;;;;;11.23;7.05;;;23.70;99.90;;;;;;4981420;28;20035;-70
2022/06/22 10:54:25;;;;;;;11.57;5.85;;;23.60;99.90;;;;;;4971604;28;20569;-72
2022/06/22 10:57:00;;;;;;;7.82;5.43;;;23.50;99.90;;;;;;4959901;28;20030;-72
2022/06/22 11:00:09;;;;;;;14.63;5.82;;;23.40;99.90;;;;;;4979363;28;20035;-72
2022/06/22 11:02:55;;;;;;;9.52;6.00;;;23.30;99.90;;;;;;4964314;28;20026;-71
2022/06/22 11:05:39;;;;;;;12.57;5.18;;;23.30;99.90;;;;;;4965037;28;20035;-71
2022/06/22 11:08:21;;;;;;;8.68;4.35;;;23.10;99.90;;;;;;4962675;28;20059;-72
2022/06/22 11:10:53;;;;;;;11.15;5.30;;;23.10;99.90;;;;;;4960423;28;20053;-71
2022/06/22 11:13:37;;;;;;;11.32;4.55;;;23.00;99.90;;;;;;4964175;28;20070;-72
2022/06/22 11:16:47;;;;;;;10.25;4.00;;;23.00;99.90;;;;;;4956866;28;20114;-74
2022/06/22 11:19:34;;;;;;;11.10;4.05;;;23.00;99.90;;;;;;4921425;28;20058;-72
2022/06/22 11:22:25;;;;;;;13.00;4.15;;;22.90;99.90;;;;;;4963090;28;20038;-73
2022/06/22 11:24:56;;;;;;;8.88;4.20;;;22.90;99.90;;;;;;4964388;28;20027;-72
2022/06/22 11:30:58;;;;;;;12.13;4.32;;;22.90;99.90;;;;;;4966113;28;20399;-73
2022/06/22 11:33:27;;;;;;;11.68;4.75;;;22.90;99.90;;;;;;4964321;28;20118;-73
2022/06/22 11:36:02;;;;;;;14.60;4.95;;;23.00;99.90;;;;;;4965615;28;20077;-73
2022/06/22 11:38:52;;;;;;;9.52;4.00;;;23.10;99.90;;;;;;4970040;28;20491;-72
2022/06/22 11:41:30;;;;;;;11.07;3.45;;;23.20;99.90;;;;;;4966803;28;20448;-76
2022/06/22 11:44:11;;;;;;;11.15;5.13;;;23.40;99.90;;;;;;4961000;28;20066;-73
2022/06/22 11:46:51;;;;;;;10.63;3.63;;;23.40;99.90;;;;;;4966685;28;20034;-74
2022/06/22 11:49:16;;;;;;;22.75;8.88;;;23.50;99.90;;;;;;4963970;28;20114;-75
2022/06/22 11:51:57;;;;;;;11.52;3.80;;;23.70;99.90;;;;;;4964514;28;20109;-73
2022/06/22 11:54:25;;;;;;;11.95;4.05;;;23.70;99.90;;;;;;4983018;28;20031;-70
2022/06/22 11:57:00;;;;;;;12.13;4.88;;;23.80;99.90;;;;;;4963782;28;20031;-72
2022/06/22 11:59:47;;;;;;;25.85;8.02;;;23.80;99.90;;;;;;4962578;28;20035;-73
2022/06/22 12:02:34;;;;;;;14.55;3.75;;;23.90;99.90;;;;;;4960178;28;20400;-73
2022/06/22 12:05:12;;;;;;;18.40;5.00;;;23.90;99.90;;;;;;4976663;28;20039;-71
2022/06/22 12:07:59;;;;;;;16.17;4.45;;;23.90;99.90;;;;;;4964522;28;20025;-71
2022/06/22 12:11:11;;;;;;;11.68;4.60;;;23.90;99.90;;;;;;4965053;28;20078;-71
2022/06/22 12:17:06;;;;;;;12.73;3.78;;;24.00;99.90;;;;;;4956193;28;20070;-70
2022/06/22 12:19:50;;;;;;;9.32;3.65;;;23.90;99.90;;;;;;4980807;28;20472;-72
2022/06/22 12:22:38;;;;;;;13.35;3.88;;;23.90;99.90;;;;;;4984732;28;20043;-71
2022/06/22 12:25:19;;;;;;;9.30;3.50;;;23.90;99.90;;;;;;4964249;28;20043;-72
2022/06/22 12:28:02;;;;;;;13.98;3.22;;;24.00;99.90;;;;;;4965699;28;20023;-72
2022/06/22 12:30:46;;;;;;;10.68;3.40;;;24.10;99.90;;;;;;4970079;28;20058;-72
2022/06/22 12:33:22;;;;;;;9.27;3.33;;;24.10;99.90;;;;;;4981460;28;20740;-72
2022/06/22 12:36:14;;;;;;;13.40;3.63;;;24.30;99.90;;;;;;4963667;28;20487;-73
2022/06/22 12:39:09;;;;;;;14.93;3.80;;;24.50;99.90;;;;;;4966407;28;20109;-71
2022/06/22 12:42:22;;;;;;;13.30;3.63;;;24.50;99.90;;;;;;4957089;28;20043;-71
2022/06/22 12:44:56;;;;;;;9.85;3.85;;;24.60;99.90;;;;;;4922191;29;20064;-71
2022/06/22 12:47:46;;;;;;;8.40;3.45;;;24.60;99.90;;;;;;4924994;29;20485;-71
2022/06/22 12:50:35;;;;;;;13.05;3.80;;;24.70;99.90;;;;;;4949347;28;20149;-70
2022/06/22 12:53:06;;;;;;;14.57;3.75;;;24.70;99.90;;;;;;4978999;28;20483;-70
2022/06/22 12:55:40;;;;;;;12.45;3.88;;;24.70;99.90;;;;;;4966532;28;20023;-70
2022/06/22 12:58:22;;;;;;;18.45;4.68;;;24.70;99.90;;;;;;4968215;28;20030;-73
2022/06/22 13:00:48;;;;;;;15.80;4.68;;;24.80;99.90;;;;;;4961249;28;20031;-75
2022/06/22 13:03:23;;;;;;;8.93;3.00;;;25.00;99.90;;;;;;4980227;28;20434;-71
2022/06/22 13:05:52;;;;;;;10.45;4.13;;;25.10;99.90;;;;;;4982855;28;20435;-71
2022/06/22 13:08:25;;;;;;;16.40;4.30;;;25.30;99.90;;;;;;4968036;28;20045;-72
2022/06/22 13:10:56;;;;;;;15.43;3.72;;;25.40;99.90;;;;;;4964019;28;20484;-72
2022/06/22 13:13:37;;;;;;;14.07;4.78;;;25.40;99.90;;;;;;4981100;28;20500;-73
2022/06/22 13:16:06;;;;;;;15.13;4.38;;;25.50;99.90;;;;;;4980398;28;20026;-72
2022/06/22 13:18:54;;;;;;;13.02;3.80;;;25.50;99.90;;;;;;4967713;28;20023;-73
2022/06/22 13:21:38;;;;;;;16.92;4.35;;;25.50;99.90;;;;;;4981586;28;20062;-72
2022/06/22 13:24:33;;;;;;;15.65;4.45;;;25.30;99.90;;;;;;4961915;28;21889;-72
2022/06/22 13:27:30;;;;;;;10.82;3.97;;;25.30;99.90;;;;;;4962823;28;20030;-72
2022/06/22 13:30:22;;;;;;;11.88;4.43;;;25.30;99.90;;;;;;4962331;28;20026;-72
2022/06/22 13:33:13;;;;;;;10.80;4.03;;;25.30;99.90;;;;;;4986146;28;20030;-72
2022/06/22 13:35:43;;;;;;;13.70;4.38;;;25.40;99.90;;;;;;4969179;28;20085;-72
2022/06/22 13:38:43;;;;;;;14.30;4.15;;;25.50;99.90;;;;;;4983433;28;20026;-72
2022/06/22 13:41:24;;;;;;;16.48;4.13;;;25.60;99.90;;;;;;4963053;28;20030;-72
2022/06/22 13:43:55;;;;;;;13.98;3.55;;;25.70;99.90;;;;;;4964422;28;20034;-72
2022/06/22 13:46:33;;;;;;;10.68;3.70;;;25.80;99.90;;;;;;4965951;28;20039;-73
2022/06/22 13:49:11;;;;;;;13.25;3.45;;;25.80;99.40;;;;;;4966261;28;20026;-71
2022/06/22 13:51:51;;;;;;;16.48;4.65;;;25.70;99.20;;;;;;4962447;28;20033;-72
2022/06/22 13:54:29;;;;;;;13.73;3.67;;;25.70;99.20;;;;;;4961533;28;20041;-73
2022/06/22 13:57:03;;;;;;;10.88;3.45;;;25.80;99.30;;;;;;4969726;28;20023;-75
2022/06/22 14:00:05;;;;;;;15.95;3.50;;;25.80;99.20;;;;;;4966056;28;20034;-75
2022/06/22 14:02:52;;;;;;;16.58;4.22;;;25.90;98.90;;;;;;4948067;28;20166;-76
2022/06/22 14:05:27;;;;;;;11.73;4.05;;;25.90;99.10;;;;;;4962727;28;20428;-75